createdAt,value
2018-04-14T00:01:41.855Z,13.80
2018-04-14T00:04:16.383Z,13.80
2018-04-14T00:06:50.701Z,13.80
2018-04-14T00:09:25.117Z,13.70
2018-04-14T00:11:59.644Z,13.70
2018-04-14T00:14:33.972Z,13.70
2018-04-14T00:17:08.376Z,13.80
2018-04-14T00:19:42.981Z,14.00
2018-04-14T00:22:18.148Z,13.90
2018-04-14T00:24:52.665Z,13.80
2018-04-14T00:27:27.099Z,13.80
2018-04-14T00:30:01.717Z,13.70
2018-04-14T00:32:36.971Z,13.70
2018-04-14T00:35:11.974Z,13.70
2018-04-14T00:37:46.515Z,13.70
2018-04-14T00:40:21.039Z,13.70
2018-04-14T00:42:56.236Z,13.70
2018-04-14T00:45:30.680Z,13.70
2018-04-14T00:48:05.211Z,13.70
2018-04-14T00:50:39.627Z,13.70
2018-04-14T00:56:18.349Z,13.70
2018-04-14T00:58:53.324Z,13.70
2018-04-14T01:01:27.616Z,13.60
2018-04-14T01:04:02.053Z,13.50
2018-04-14T01:06:36.356Z,13.60
2018-04-14T01:09:10.692Z,13.60
2018-04-14T01:11:46.666Z,13.50
2018-04-14T01:14:21.071Z,13.50
2018-04-14T01:16:55.568Z,13.60
2018-04-14T01:19:30.032Z,13.70
2018-04-14T01:22:04.515Z,13.50
2018-04-14T01:24:39.049Z,13.50
2018-04-14T01:27:13.361Z,13.70
2018-04-14T01:29:47.799Z,13.70
2018-04-14T01:32:22.125Z,13.60
2018-04-14T01:34:56.500Z,13.70
2018-04-14T01:37:31.069Z,14.20
2018-04-14T01:40:05.778Z,14.40
2018-04-14T01:42:40.200Z,14.20
2018-04-14T01:45:14.532Z,14.50
2018-04-14T01:47:49.637Z,14.10
2018-04-14T01:50:24.025Z,14.30
2018-04-14T01:53:00.148Z,13.60
2018-04-14T01:55:34.667Z,13.60
2018-04-14T01:58:09.097Z,13.60
2018-04-14T02:00:43.620Z,13.60
2018-04-14T02:03:18.812Z,14.00
2018-04-14T02:05:53.192Z,13.90
2018-04-14T02:08:27.802Z,14.10
2018-04-14T02:11:02.284Z,14.00
2018-04-14T02:13:36.742Z,13.90
2018-04-14T02:16:11.241Z,14.30
2018-04-14T02:18:45.497Z,13.90
2018-04-14T02:21:19.820Z,13.60
2018-04-14T02:23:54.329Z,13.60
2018-04-14T02:26:29.021Z,13.70
2018-04-14T02:29:03.780Z,13.50
2018-04-14T02:31:39.207Z,13.40
2018-04-14T02:34:13.518Z,13.30
2018-04-14T02:36:49.481Z,13.50
2018-04-14T02:39:23.893Z,13.50
2018-04-14T02:41:58.424Z,13.60
2018-04-14T02:44:32.839Z,13.50
2018-04-14T02:47:07.181Z,13.60
2018-04-14T02:49:41.685Z,13.40
2018-04-14T02:52:16.988Z,13.10
2018-04-14T02:54:51.496Z,13.00
2018-04-14T02:57:25.964Z,13.20
2018-04-14T03:00:00.413Z,13.40
2018-04-14T03:02:34.720Z,13.30
2018-04-14T03:05:09.953Z,13.30
2018-04-14T03:07:44.269Z,13.30
2018-04-14T03:10:18.854Z,13.40
2018-04-14T03:12:53.316Z,13.30
2018-04-14T03:15:27.657Z,12.80
2018-04-14T03:18:02.081Z,13.00
2018-04-14T03:20:36.390Z,13.00
2018-04-14T03:23:10.852Z,13.00
2018-04-14T03:25:45.961Z,13.10
2018-04-14T03:28:20.272Z,13.10
2018-04-14T03:30:54.891Z,13.20
2018-04-14T03:33:29.260Z,13.00
2018-04-14T03:36:03.744Z,13.00
2018-04-14T03:38:38.260Z,13.10
2018-04-14T03:41:12.573Z,13.10
2018-04-14T03:43:47.204Z,12.90
2018-04-14T03:46:22.543Z,13.00
2018-04-14T03:48:57.244Z,13.00
2018-04-14T03:51:32.402Z,13.00
2018-04-14T03:54:07.208Z,12.90
2018-04-14T03:56:41.837Z,13.00
2018-04-14T03:59:18.713Z,13.00
2018-04-14T04:01:53.281Z,13.00
2018-04-14T04:04:28.512Z,13.00
2018-04-14T04:07:03.032Z,13.40
2018-04-14T04:09:37.329Z,14.10
2018-04-14T04:12:11.756Z,14.40
2018-04-14T04:14:46.291Z,14.60
2018-04-14T04:17:20.716Z,14.50
2018-04-14T04:20:07.680Z,14.80
2018-04-14T04:22:54.557Z,14.80
2018-04-14T04:25:39.636Z,14.80
2018-04-14T04:28:14.574Z,14.90
2018-04-14T04:30:48.628Z,14.80
2018-04-14T04:33:22.864Z,14.90
2018-04-14T04:35:57.084Z,14.80
2018-04-14T04:38:32.109Z,14.90
2018-04-14T04:41:06.323Z,14.80
2018-04-14T04:43:40.584Z,14.90
2018-04-14T04:46:14.853Z,14.90
2018-04-14T04:48:48.986Z,15.10
2018-04-14T04:51:23.216Z,15.20
2018-04-14T04:53:58.207Z,15.00
2018-04-14T04:56:32.569Z,15.00
2018-04-14T04:59:06.792Z,15.00
2018-04-14T05:01:40.992Z,15.00
2018-04-14T05:04:15.417Z,14.90
2018-04-14T05:06:49.839Z,14.90
2018-04-14T05:09:24.048Z,14.70
2018-04-14T05:11:58.285Z,14.60
2018-04-14T05:14:33.236Z,14.90
2018-04-14T05:17:07.312Z,14.80
2018-04-14T05:19:41.632Z,15.00
2018-04-14T05:22:15.948Z,14.90
2018-04-14T05:24:50.851Z,14.60
2018-04-14T05:27:25.232Z,14.60
2018-04-14T05:29:59.500Z,14.70
2018-04-14T05:32:33.625Z,14.60
2018-04-14T05:35:09.414Z,14.70
2018-04-14T05:37:43.600Z,14.70
2018-04-14T05:40:17.822Z,14.70
2018-04-14T05:42:52.038Z,14.80
2018-04-14T05:45:26.245Z,15.10
2018-04-14T05:48:00.464Z,14.90
2018-04-14T05:50:35.174Z,14.90
2018-04-14T05:53:09.353Z,14.90
2018-04-14T05:55:43.608Z,14.80
2018-04-14T05:58:17.884Z,14.70
2018-04-14T06:00:52.140Z,14.90
2018-04-14T06:03:27.179Z,15.00
2018-04-14T06:06:01.421Z,14.90
2018-04-14T06:08:35.638Z,15.00
2018-04-14T06:11:09.829Z,15.00
2018-04-14T06:13:44.052Z,14.90
2018-04-14T06:16:18.264Z,14.90
2018-04-14T06:18:52.461Z,14.80
2018-04-14T06:21:27.456Z,14.90
2018-04-14T06:24:01.584Z,14.90
2018-04-14T06:26:35.772Z,14.90
2018-04-14T06:29:10.051Z,15.10
2018-04-14T06:31:44.084Z,15.20
2018-04-14T06:34:18.352Z,15.20
2018-04-14T06:36:52.565Z,15.10
2018-04-14T06:39:26.812Z,15.20
2018-04-14T06:42:01.438Z,15.20
2018-04-14T06:44:35.484Z,15.30
2018-04-14T06:47:10.693Z,15.50
2018-04-14T06:49:44.832Z,15.50
2018-04-14T06:52:19.876Z,16.80
2018-04-14T06:54:53.968Z,16.70
2018-04-14T06:57:28.252Z,16.90
2018-04-14T07:00:02.339Z,17.20
2018-04-14T07:02:37.376Z,17.10
2018-04-14T07:05:11.753Z,17.00
2018-04-14T07:07:45.960Z,16.70
2018-04-14T07:10:20.480Z,16.70
2018-04-14T07:12:54.708Z,17.30
2018-04-14T07:15:29.035Z,17.30
2018-04-14T07:18:04.021Z,17.40
2018-04-14T07:20:38.302Z,17.30
2018-04-14T07:23:12.640Z,17.60
2018-04-14T07:25:48.451Z,18.00
2018-04-14T07:28:22.661Z,18.00
2018-04-14T07:30:57.986Z,17.90
2018-04-14T07:33:33.017Z,18.50
2018-04-14T07:36:07.169Z,18.40
2018-04-14T07:38:41.564Z,18.20
2018-04-14T07:41:15.896Z,18.60
2018-04-14T07:43:50.212Z,18.80
2018-04-14T07:46:24.420Z,17.90
2018-04-14T07:48:58.660Z,17.80
2018-04-14T07:51:32.950Z,18.10
2018-04-14T07:54:07.920Z,17.70
2018-04-14T07:56:42.109Z,17.60
2018-04-14T07:59:16.424Z,17.30
2018-04-14T08:01:50.775Z,17.50
2018-04-14T08:04:25.056Z,16.80
2018-04-14T08:06:59.284Z,16.80
2018-04-14T08:09:33.508Z,16.70
2018-04-14T08:12:07.828Z,17.30
2018-04-14T08:14:42.945Z,17.60
2018-04-14T08:17:17.275Z,16.60
2018-04-14T08:19:53.336Z,17.10
2018-04-14T08:22:27.565Z,17.10
2018-04-14T08:25:01.850Z,17.60
2018-04-14T08:27:36.066Z,16.90
2018-04-14T08:30:10.406Z,17.80
2018-04-14T08:32:44.682Z,18.00
2018-04-14T08:35:18.835Z,18.60
2018-04-14T08:37:53.065Z,18.20
2018-04-14T08:40:27.260Z,18.50
2018-04-14T08:43:01.691Z,18.40
2018-04-14T08:45:36.815Z,18.00
2018-04-14T08:48:11.126Z,18.00
2018-04-14T08:50:45.417Z,18.20
2018-04-14T08:53:19.564Z,18.40
2018-04-14T08:55:53.992Z,18.70
2018-04-14T08:58:28.213Z,18.50
2018-04-14T09:01:02.510Z,18.80
2018-04-14T09:03:37.664Z,18.10
2018-04-14T09:06:11.952Z,18.10
2018-04-14T09:08:46.308Z,18.60
2018-04-14T09:11:20.660Z,18.70
2018-04-14T09:13:54.831Z,18.90
2018-04-14T09:16:29.124Z,18.80
2018-04-14T09:19:04.160Z,18.90
2018-04-14T09:21:38.604Z,18.90
2018-04-14T09:24:13.128Z,18.50
2018-04-14T09:26:47.420Z,18.20
2018-04-14T09:29:22.078Z,18.20
2018-04-14T09:31:56.374Z,18.60
2018-04-14T09:34:30.701Z,18.80
2018-04-14T09:37:05.132Z,18.90
2018-04-14T09:39:40.276Z,18.10
2018-04-14T09:42:14.650Z,18.10
2018-04-14T09:44:48.937Z,17.70
2018-04-14T09:47:24.352Z,17.90
2018-04-14T09:49:58.781Z,17.90
2018-04-14T09:52:33.908Z,18.60
2018-04-14T09:55:08.304Z,18.60
2018-04-14T09:57:42.734Z,18.20
2018-04-14T10:00:22.791Z,18.10
2018-04-14T10:03:00.154Z,18.00
2018-04-14T10:05:34.404Z,17.80
2018-04-14T10:08:08.675Z,18.00
2018-04-14T10:10:43.168Z,18.50
2018-04-14T10:13:17.468Z,18.60
2018-04-14T10:15:53.363Z,17.80
2018-04-14T10:18:27.847Z,17.80
2018-04-14T10:21:02.480Z,17.60
2018-04-14T10:23:36.748Z,17.40
2018-04-14T10:26:11.013Z,17.50
2018-04-14T10:28:45.536Z,17.00
2018-04-14T10:31:19.852Z,16.50
2018-04-14T10:33:54.379Z,16.80
2018-04-14T10:36:29.412Z,17.40
2018-04-14T10:39:03.817Z,17.40
2018-04-14T10:41:38.234Z,17.10
2018-04-14T10:44:13.373Z,16.90
2018-04-14T10:46:47.804Z,16.80
2018-04-14T10:49:22.876Z,16.30
2018-04-14T10:51:57.245Z,16.30
2018-04-14T10:54:31.559Z,16.60
2018-04-14T10:57:05.861Z,16.90
2018-04-14T10:59:40.417Z,16.20
2018-04-14T11:02:14.832Z,16.50
2018-04-14T11:04:49.147Z,16.80
2018-04-14T11:07:23.584Z,17.10
2018-04-14T11:09:57.884Z,17.50
2018-04-14T11:12:32.316Z,17.10
2018-04-14T11:15:06.729Z,17.20
2018-04-14T11:17:41.064Z,17.30
2018-04-14T11:20:15.488Z,17.10
2018-04-14T11:22:49.907Z,17.20
2018-04-14T11:25:24.325Z,17.80
2018-04-14T11:27:58.753Z,18.60
2018-04-14T11:30:33.078Z,19.00
2018-04-14T11:33:07.488Z,19.60
2018-04-14T11:35:42.528Z,19.50
2018-04-14T11:38:17.761Z,19.40
2018-04-14T11:40:52.185Z,19.80
2018-04-14T11:43:26.529Z,20.10
2018-04-14T11:46:00.908Z,20.10
2018-04-14T11:48:35.343Z,20.20
2018-04-14T11:51:09.776Z,20.20
2018-04-14T11:53:44.172Z,20.20
2018-04-14T11:56:18.551Z,20.20
2018-04-14T11:58:52.880Z,20.30
2018-04-14T12:01:28.185Z,20.20
2018-04-14T12:04:03.386Z,20.40
2018-04-14T12:06:37.784Z,20.40
2018-04-14T12:09:12.349Z,20.20
2018-04-14T12:11:46.769Z,20.50
2018-04-14T12:14:21.188Z,20.30
2018-04-14T12:16:55.609Z,20.60
2018-04-14T12:19:29.896Z,20.30
2018-04-14T12:22:04.433Z,20.30
2018-04-14T12:24:39.667Z,20.80
2018-04-14T12:27:14.208Z,20.70
2018-04-14T12:29:48.505Z,20.80
2018-04-14T12:32:22.952Z,20.80
2018-04-14T12:34:57.350Z,21.00
2018-04-14T12:37:31.776Z,20.40
2018-04-14T12:40:06.089Z,19.90
2018-04-14T12:42:40.388Z,19.70
2018-04-14T12:45:14.657Z,19.60
2018-04-14T12:47:49.160Z,19.20
2018-04-14T12:50:23.796Z,19.40
2018-04-14T12:52:58.936Z,19.60
2018-04-14T12:55:33.357Z,19.60
2018-04-14T12:58:07.624Z,20.10
2018-04-14T13:00:41.973Z,19.70
2018-04-14T13:03:16.304Z,19.90
2018-04-14T13:05:50.812Z,20.00
2018-04-14T13:08:25.971Z,20.00
2018-04-14T13:11:00.596Z,20.00
2018-04-14T13:13:34.852Z,19.80
2018-04-14T13:16:09.240Z,19.50
2018-04-14T13:18:43.645Z,19.30
2018-04-14T13:21:18.788Z,19.40
2018-04-14T13:23:53.216Z,19.40
2018-04-14T13:26:27.693Z,19.10
2018-04-14T13:29:02.080Z,19.50
2018-04-14T13:31:36.484Z,20.00
2018-04-14T13:34:10.888Z,20.30
2018-04-14T13:36:45.320Z,20.10
2018-04-14T13:39:19.840Z,20.30
2018-04-14T13:41:54.144Z,19.70
2018-04-14T13:44:28.476Z,19.40
2018-04-14T13:47:02.997Z,19.30
2018-04-14T13:49:37.260Z,20.00
2018-04-14T13:52:11.572Z,20.00
2018-04-14T13:54:45.844Z,19.80
2018-04-14T13:57:20.263Z,19.60
2018-04-14T13:59:54.777Z,19.90
2018-04-14T14:02:29.208Z,20.30
2018-04-14T14:05:03.484Z,20.20
2018-04-14T14:07:37.936Z,19.90
2018-04-14T14:10:12.476Z,20.00
2018-04-14T14:12:46.908Z,20.20
2018-04-14T14:15:21.368Z,19.70
2018-04-14T14:17:55.925Z,19.70
2018-04-14T14:20:30.364Z,19.90
2018-04-14T14:23:04.721Z,20.20
2018-04-14T14:25:39.232Z,18.90
2018-04-14T14:28:14.433Z,18.60
2018-04-14T14:30:49.587Z,18.60
2018-04-14T14:33:24.095Z,18.90
2018-04-14T14:35:59.312Z,19.20
2018-04-14T14:38:33.868Z,19.10
2018-04-14T14:41:08.208Z,19.30
2018-04-14T14:43:42.588Z,19.00
2018-04-14T14:46:16.915Z,19.20
2018-04-14T14:48:51.437Z,19.50
2018-04-14T14:51:25.861Z,19.70
2018-04-14T14:54:00.392Z,19.50
2018-04-14T14:56:34.888Z,19.60
2018-04-14T14:59:09.379Z,19.80
2018-04-14T15:01:44.392Z,19.50
2018-04-14T15:04:18.868Z,19.40
2018-04-14T15:06:53.232Z,19.60
2018-04-14T15:09:27.715Z,19.70
2018-04-14T15:12:02.134Z,19.30
2018-04-14T15:14:37.170Z,19.50
2018-04-14T15:17:11.716Z,19.50
2018-04-14T15:19:46.221Z,20.20
2018-04-14T15:22:20.644Z,20.00
2018-04-14T15:24:55.096Z,19.80
2018-04-14T15:27:29.401Z,19.10
2018-04-14T15:30:04.517Z,19.30
2018-04-14T15:32:39.076Z,19.30
2018-04-14T15:35:13.569Z,19.50
2018-04-14T15:37:47.852Z,19.80
2018-04-14T15:40:22.192Z,19.80
2018-04-14T15:42:56.740Z,19.70
2018-04-14T15:45:31.861Z,19.50
2018-04-14T15:48:07.202Z,19.40
2018-04-14T15:50:41.952Z,19.30
2018-04-14T15:53:16.352Z,19.90
2018-04-14T15:55:51.601Z,19.60
2018-04-14T15:58:26.132Z,19.60
2018-04-14T16:01:00.448Z,19.30
2018-04-14T16:03:34.764Z,19.70
2018-04-14T16:06:09.197Z,19.70
2018-04-14T16:08:43.712Z,19.80
2018-04-14T16:11:18.002Z,19.80
2018-04-14T16:13:53.253Z,20.20
2018-04-14T16:16:27.707Z,20.10
2018-04-14T16:19:02.265Z,20.10
2018-04-14T16:21:36.745Z,19.70
2018-04-14T16:24:11.270Z,19.80
2018-04-14T16:26:45.577Z,19.30
2018-04-14T16:29:20.204Z,19.20
2018-04-14T16:31:54.712Z,19.60
2018-04-14T16:34:29.273Z,19.70
2018-04-14T16:37:03.692Z,19.80
2018-04-14T16:39:37.970Z,20.00
2018-04-14T16:42:12.327Z,19.50
2018-04-14T16:44:46.603Z,19.20
2018-04-14T16:47:20.948Z,19.10
2018-04-14T16:49:55.742Z,19.20
2018-04-14T16:52:30.218Z,19.10
2018-04-14T16:55:04.757Z,18.70
2018-04-14T16:57:39.053Z,19.20
2018-04-14T17:00:13.444Z,19.00
2018-04-14T17:02:47.784Z,18.20
2018-04-14T17:05:22.872Z,17.60
2018-04-14T17:07:57.340Z,17.60
2018-04-14T17:10:31.768Z,17.00
2018-04-14T17:13:06.274Z,17.10
2018-04-14T17:15:40.880Z,17.10
2018-04-14T17:18:15.192Z,16.80
2018-04-14T17:20:49.565Z,16.90
2018-04-14T17:23:25.391Z,16.70
2018-04-14T17:25:59.848Z,16.70
2018-04-14T17:28:34.224Z,16.40
2018-04-14T17:31:09.264Z,16.30
2018-04-14T17:33:43.698Z,16.30
2018-04-14T17:36:18.220Z,16.40
2018-04-14T17:38:52.947Z,16.40
2018-04-14T17:41:27.476Z,16.40
2018-04-14T17:44:01.894Z,16.30
2018-04-14T17:46:36.204Z,16.40
2018-04-14T17:49:10.743Z,16.30
2018-04-14T17:51:46.056Z,15.80
2018-04-14T17:54:20.388Z,15.80
2018-04-14T17:56:54.937Z,15.80
2018-04-14T17:59:29.478Z,15.80
2018-04-14T18:02:03.968Z,15.90
2018-04-14T18:04:38.476Z,15.90
2018-04-14T18:07:12.772Z,15.80
2018-04-14T18:09:47.061Z,15.60
2018-04-14T18:12:22.134Z,15.20
2018-04-14T18:14:56.584Z,15.20
2018-04-14T18:17:31.106Z,15.40
2018-04-14T18:20:05.624Z,15.20
2018-04-14T18:22:39.888Z,15.10
2018-04-14T18:25:14.246Z,15.20
2018-04-14T18:27:48.788Z,15.30
2018-04-14T18:30:23.073Z,15.20
2018-04-14T18:32:58.248Z,15.20
2018-04-14T18:35:32.769Z,15.20
2018-04-14T18:38:07.165Z,15.20
2018-04-14T18:40:42.321Z,15.10
2018-04-14T18:43:16.740Z,15.00
2018-04-14T18:45:51.057Z,14.90
2018-04-14T18:48:26.406Z,14.70
2018-04-14T18:51:00.925Z,14.60
2018-04-14T18:53:35.313Z,14.80
2018-04-14T18:56:10.486Z,14.60
2018-04-14T18:58:45.589Z,14.40
2018-04-14T19:01:19.932Z,14.40
2018-04-14T19:03:54.358Z,14.30
2018-04-14T19:06:28.640Z,14.20
2018-04-14T19:09:03.028Z,14.30
2018-04-14T19:11:37.320Z,14.30
2018-04-14T19:14:11.596Z,14.20
2018-04-14T19:16:46.061Z,14.10
2018-04-14T19:19:20.373Z,13.90
2018-04-14T19:21:54.896Z,14.10
2018-04-14T19:24:30.036Z,14.00
2018-04-14T19:27:05.145Z,13.80
2018-04-14T19:29:39.599Z,13.80
2018-04-14T19:32:15.484Z,13.80
2018-04-14T19:34:49.976Z,13.80
2018-04-14T19:37:24.490Z,13.80
2018-04-14T19:39:58.915Z,13.70
2018-04-14T19:42:33.435Z,13.70
2018-04-14T19:45:07.761Z,13.60
2018-04-14T19:47:42.171Z,13.50
2018-04-14T19:50:16.596Z,13.50
2018-04-14T19:52:50.992Z,13.60
2018-04-14T19:55:25.372Z,13.60
2018-04-14T19:57:59.833Z,13.60
2018-04-14T20:00:34.262Z,13.50
2018-04-14T20:03:08.612Z,13.50
2018-04-14T20:05:43.108Z,13.50
2018-04-14T20:08:17.748Z,13.50
2018-04-14T20:10:52.048Z,13.60
2018-04-14T20:13:26.366Z,13.70
2018-04-14T20:16:00.991Z,13.40
2018-04-14T20:18:35.412Z,13.40
2018-04-14T20:21:10.057Z,13.20
2018-04-14T20:23:44.400Z,13.30
2018-04-14T20:26:18.880Z,13.20
2018-04-14T20:28:54.117Z,13.00
2018-04-14T20:31:28.572Z,13.00
2018-04-14T20:34:03.064Z,13.10
2018-04-14T20:36:37.504Z,13.00
2018-04-14T20:39:12.133Z,13.00
2018-04-14T20:41:46.640Z,13.10
2018-04-14T20:44:21.278Z,13.20
2018-04-14T20:46:55.908Z,13.10
2018-04-14T20:49:30.325Z,12.80
2018-04-14T20:52:04.655Z,12.70
2018-04-14T20:54:39.092Z,12.70
2018-04-14T20:57:13.580Z,12.70
2018-04-14T20:59:48.044Z,12.70
2018-04-14T21:02:22.510Z,12.70
2018-04-14T21:04:57.664Z,12.70
2018-04-14T21:07:32.052Z,12.70
2018-04-14T21:10:06.481Z,12.60
2018-04-14T21:12:40.909Z,12.50
2018-04-14T21:15:15.993Z,12.50
2018-04-14T21:17:50.589Z,12.40
2018-04-14T21:20:25.014Z,12.50
2018-04-14T21:22:59.343Z,12.50
2018-04-14T21:25:34.568Z,12.40
2018-04-14T21:28:08.969Z,12.40
2018-04-14T21:30:43.316Z,12.30
2018-04-14T21:33:17.824Z,12.30
2018-04-14T21:35:52.330Z,12.50
2018-04-14T21:38:26.883Z,12.40
2018-04-14T21:41:01.400Z,12.30
2018-04-14T21:43:36.024Z,12.40
2018-04-14T21:46:10.430Z,12.30
2018-04-14T21:48:44.964Z,12.20
2018-04-14T21:51:19.473Z,12.40
2018-04-14T21:53:53.805Z,12.20
2018-04-14T21:56:28.136Z,12.30
2018-04-14T21:59:02.860Z,12.20
2018-04-14T22:01:38.305Z,12.20
2018-04-14T22:04:12.721Z,12.30
2018-04-14T22:06:47.739Z,12.10
2018-04-14T22:09:23.101Z,12.00
2018-04-14T22:11:57.425Z,11.90
2018-04-14T22:14:32.635Z,12.00
2018-04-14T22:17:07.064Z,12.00
2018-04-14T22:19:41.500Z,12.20
2018-04-14T22:22:15.921Z,12.20
2018-04-14T22:24:50.244Z,12.20
2018-04-14T22:27:24.535Z,12.10
2018-04-14T22:29:58.836Z,12.20
2018-04-14T22:32:34.004Z,12.20
2018-04-14T22:35:08.536Z,12.20
2018-04-14T22:37:42.953Z,12.10
2018-04-14T22:40:17.243Z,12.20
2018-04-14T22:42:51.674Z,12.20
2018-04-14T22:45:26.325Z,12.20
2018-04-14T22:48:00.829Z,12.10
2018-04-14T22:50:35.268Z,12.30
2018-04-14T22:53:09.688Z,12.20
2018-04-14T22:55:44.081Z,12.10
2018-04-14T22:58:18.612Z,12.00
2018-04-14T23:00:53.059Z,12.00
2018-04-14T23:03:28.887Z,12.00
2018-04-14T23:06:04.128Z,12.00
2018-04-14T23:08:38.464Z,12.00
2018-04-14T23:11:12.787Z,11.90
2018-04-14T23:13:47.219Z,11.90
2018-04-14T23:16:22.340Z,11.80
2018-04-14T23:18:56.775Z,11.80
2018-04-14T23:21:31.217Z,11.90
2018-04-14T23:24:05.804Z,11.80
2018-04-14T23:26:40.328Z,11.90
2018-04-14T23:29:14.835Z,11.90
2018-04-14T23:31:49.149Z,12.00
2018-04-14T23:34:23.469Z,12.10
2018-04-14T23:36:58.507Z,12.00
2018-04-14T23:39:33.532Z,12.10
2018-04-14T23:42:08.084Z,12.00
2018-04-14T23:44:42.477Z,11.90
2018-04-14T23:47:17.020Z,12.00
2018-04-14T23:49:51.548Z,11.90
2018-04-14T23:52:26.053Z,12.00
2018-04-14T23:55:00.492Z,11.90
2018-04-14T23:57:35.013Z,11.90
